sensor_id;sensor_type;location;lat;lon;timestamp;P1;durP1;ratioP1;P2;durP2;ratioP2
57635;SDS011;43465;50.728;4.160;2023-11-19T00:02:18;15.88;;;4.72;;
57635;SDS011;43465;50.728;4.160;2023-11-19T00:04:44;15.23;;;4.80;;
57635;SDS011;43465;50.728;4.160;2023-11-19T00:07:09;15.65;;;5.18;;
57635;SDS011;43465;50.728;4.160;2023-11-19T00:09:37;11.77;;;4.18;;
57635;SDS011;43465;50.728;4.160;2023-11-19T00:12:03;15.15;;;5.05;;
57635;SDS011;43465;50.728;4.160;2023-11-19T00:14:30;10.38;;;5.03;;
57635;SDS011;43465;50.728;4.160;2023-11-19T00:16:55;9.57;;;4.30;;
57635;SDS011;43465;50.728;4.160;2023-11-19T00:19:21;11.98;;;4.13;;
57635;SDS011;43465;50.728;4.160;2023-11-19T00:21:47;10.85;;;4.30;;
57635;SDS011;43465;50.728;4.160;2023-11-19T00:24:13;12.90;;;3.95;;
57635;SDS011;43465;50.728;4.160;2023-11-19T00:26:41;10.88;;;4.68;;
57635;SDS011;43465;50.728;4.160;2023-11-19T00:29:07;15.70;;;4.20;;
57635;SDS011;43465;50.728;4.160;2023-11-19T00:31:33;12.43;;;3.70;;
57635;SDS011;43465;50.728;4.160;2023-11-19T00:34:00;13.27;;;3.63;;
57635;SDS011;43465;50.728;4.160;2023-11-19T00:36:26;17.70;;;4.57;;
57635;SDS011;43465;50.728;4.160;2023-11-19T00:38:53;11.57;;;4.03;;
57635;SDS011;43465;50.728;4.160;2023-11-19T00:41:19;15.50;;;3.78;;
57635;SDS011;43465;50.728;4.160;2023-11-19T00:43:44;16.20;;;3.35;;
57635;SDS011;43465;50.728;4.160;2023-11-19T00:46:10;14.38;;;3.88;;
57635;SDS011;43465;50.728;4.160;2023-11-19T00:48:36;10.70;;;2.92;;
57635;SDS011;43465;50.728;4.160;2023-11-19T00:51:02;14.25;;;3.65;;
57635;SDS011;43465;50.728;4.160;2023-11-19T00:53:29;17.13;;;3.72;;
57635;SDS011;43465;50.728;4.160;2023-11-19T00:55:55;14.85;;;3.42;;
57635;SDS011;43465;50.728;4.160;2023-11-19T00:58:22;11.45;;;3.58;;
57635;SDS011;43465;50.728;4.160;2023-11-19T01:00:47;14.07;;;3.47;;
57635;SDS011;43465;50.728;4.160;2023-11-19T01:03:13;17.27;;;4.05;;
57635;SDS011;43465;50.728;4.160;2023-11-19T01:05:40;12.15;;;3.13;;
57635;SDS011;43465;50.728;4.160;2023-11-19T01:08:06;15.90;;;3.78;;
57635;SDS011;43465;50.728;4.160;2023-11-19T01:10:33;15.57;;;4.00;;
57635;SDS011;43465;50.728;4.160;2023-11-19T01:12:59;16.42;;;3.78;;
57635;SDS011;43465;50.728;4.160;2023-11-19T01:15:24;18.45;;;3.72;;
57635;SDS011;43465;50.728;4.160;2023-11-19T01:17:51;18.80;;;3.63;;
57635;SDS011;43465;50.728;4.160;2023-11-19T01:20:16;16.52;;;4.13;;
57635;SDS011;43465;50.728;4.160;2023-11-19T01:22:42;18.85;;;3.65;;
57635;SDS011;43465;50.728;4.160;2023-11-19T01:25:08;15.00;;;3.88;;
57635;SDS011;43465;50.728;4.160;2023-11-19T01:27:34;17.40;;;3.80;;
57635;SDS011;43465;50.728;4.160;2023-11-19T01:30:00;13.48;;;2.97;;
57635;SDS011;43465;50.728;4.160;2023-11-19T01:32:28;17.73;;;3.60;;
57635;SDS011;43465;50.728;4.160;2023-11-19T01:34:54;21.13;;;3.53;;
57635;SDS011;43465;50.728;4.160;2023-11-19T01:37:20;19.23;;;3.58;;
57635;SDS011;43465;50.728;4.160;2023-11-19T01:39:45;15.63;;;3.22;;
57635;SDS011;43465;50.728;4.160;2023-11-19T01:42:11;18.05;;;3.65;;
57635;SDS011;43465;50.728;4.160;2023-11-19T01:44:37;14.52;;;3.67;;
57635;SDS011;43465;50.728;4.160;2023-11-19T01:47:03;18.60;;;3.80;;
57635;SDS011;43465;50.728;4.160;2023-11-19T01:49:30;14.98;;;3.58;;
57635;SDS011;43465;50.728;4.160;2023-11-19T01:51:57;23.35;;;3.97;;
57635;SDS011;43465;50.728;4.160;2023-11-19T01:54:24;19.88;;;4.20;;
57635;SDS011;43465;50.728;4.160;2023-11-19T01:56:50;20.98;;;4.03;;
57635;SDS011;43465;50.728;4.160;2023-11-19T01:59:18;19.80;;;4.10;;
57635;SDS011;43465;50.728;4.160;2023-11-19T02:04:17;25.17;;;4.40;;
57635;SDS011;43465;50.728;4.160;2023-11-19T02:06:42;16.67;;;4.85;;
57635;SDS011;43465;50.728;4.160;2023-11-19T02:09:10;21.67;;;3.45;;
57635;SDS011;43465;50.728;4.160;2023-11-19T02:11:35;19.92;;;3.45;;
57635;SDS011;43465;50.728;4.160;2023-11-19T02:14:01;20.40;;;4.38;;
57635;SDS011;43465;50.728;4.160;2023-11-19T02:16:29;20.17;;;4.13;;
57635;SDS011;43465;50.728;4.160;2023-11-19T02:18:55;15.43;;;3.40;;
57635;SDS011;43465;50.728;4.160;2023-11-19T02:21:20;18.55;;;4.28;;
57635;SDS011;43465;50.728;4.160;2023-11-19T02:23:46;21.55;;;4.22;;
57635;SDS011;43465;50.728;4.160;2023-11-19T02:28:50;19.70;;;4.05;;
57635;SDS011;43465;50.728;4.160;2023-11-19T02:31:17;18.83;;;4.22;;
57635;SDS011;43465;50.728;4.160;2023-11-19T02:33:44;19.63;;;3.78;;
57635;SDS011;43465;50.728;4.160;2023-11-19T02:36:10;19.40;;;4.10;;
57635;SDS011;43465;50.728;4.160;2023-11-19T02:38:36;16.60;;;3.90;;
57635;SDS011;43465;50.728;4.160;2023-11-19T02:41:05;20.30;;;3.83;;
57635;SDS011;43465;50.728;4.160;2023-11-19T02:43:32;16.27;;;3.90;;
57635;SDS011;43465;50.728;4.160;2023-11-19T02:46:00;18.20;;;4.05;;
57635;SDS011;43465;50.728;4.160;2023-11-19T02:48:32;20.33;;;4.18;;
57635;SDS011;43465;50.728;4.160;2023-11-19T02:51:00;19.83;;;4.25;;
57635;SDS011;43465;50.728;4.160;2023-11-19T02:53:29;21.15;;;4.40;;
57635;SDS011;43465;50.728;4.160;2023-11-19T02:55:55;21.65;;;3.65;;
57635;SDS011;43465;50.728;4.160;2023-11-19T02:58:27;26.17;;;4.40;;
57635;SDS011;43465;50.728;4.160;2023-11-19T03:00:54;20.23;;;4.05;;
57635;SDS011;43465;50.728;4.160;2023-11-19T03:03:24;17.92;;;4.15;;
57635;SDS011;43465;50.728;4.160;2023-11-19T03:05:55;21.80;;;4.20;;
57635;SDS011;43465;50.728;4.160;2023-11-19T03:08:22;21.23;;;3.67;;
57635;SDS011;43465;50.728;4.160;2023-11-19T03:10:47;19.30;;;3.90;;
57635;SDS011;43465;50.728;4.160;2023-11-19T03:13:14;20.20;;;4.25;;
57635;SDS011;43465;50.728;4.160;2023-11-19T03:15:40;20.25;;;3.60;;
57635;SDS011;43465;50.728;4.160;2023-11-19T03:18:06;24.13;;;4.10;;
57635;SDS011;43465;50.728;4.160;2023-11-19T03:20:32;20.88;;;4.53;;
57635;SDS011;43465;50.728;4.160;2023-11-19T03:22:58;22.25;;;3.72;;
57635;SDS011;43465;50.728;4.160;2023-11-19T03:25:25;22.38;;;4.38;;
57635;SDS011;43465;50.728;4.160;2023-11-19T03:27:59;20.25;;;4.38;;
57635;SDS011;43465;50.728;4.160;2023-11-19T03:30:28;19.92;;;4.45;;
57635;SDS011;43465;50.728;4.160;2023-11-19T03:32:58;23.23;;;4.53;;
57635;SDS011;43465;50.728;4.160;2023-11-19T03:35:24;30.67;;;4.72;;
57635;SDS011;43465;50.728;4.160;2023-11-19T03:37:50;23.17;;;4.85;;
57635;SDS011;43465;50.728;4.160;2023-11-19T03:40:16;31.35;;;4.70;;
57635;SDS011;43465;50.728;4.160;2023-11-19T03:42:44;23.50;;;5.05;;
57635;SDS011;43465;50.728;4.160;2023-11-19T03:45:10;21.75;;;4.28;;
57635;SDS011;43465;50.728;4.160;2023-11-19T03:47:36;24.65;;;4.32;;
57635;SDS011;43465;50.728;4.160;2023-11-19T03:50:02;25.98;;;4.55;;
57635;SDS011;43465;50.728;4.160;2023-11-19T03:52:28;25.42;;;4.35;;
57635;SDS011;43465;50.728;4.160;2023-11-19T03:54:54;27.73;;;4.70;;
57635;SDS011;43465;50.728;4.160;2023-11-19T03:57:20;23.73;;;3.85;;
57635;SDS011;43465;50.728;4.160;2023-11-19T03:59:46;22.15;;;4.78;;
57635;SDS011;43465;50.728;4.160;2023-11-19T04:02:12;24.27;;;4.43;;
57635;SDS011;43465;50.728;4.160;2023-11-19T04:04:38;25.55;;;5.25;;
57635;SDS011;43465;50.728;4.160;2023-11-19T04:07:04;26.50;;;4.38;;
57635;SDS011;43465;50.728;4.160;2023-11-19T04:09:30;20.42;;;4.35;;
57635;SDS011;43465;50.728;4.160;2023-11-19T04:11:58;22.63;;;4.95;;
57635;SDS011;43465;50.728;4.160;2023-11-19T04:14:25;21.95;;;4.50;;
57635;SDS011;43465;50.728;4.160;2023-11-19T04:16:51;24.77;;;4.30;;
57635;SDS011;43465;50.728;4.160;2023-11-19T04:19:17;29.08;;;5.53;;
57635;SDS011;43465;50.728;4.160;2023-11-19T04:21:43;26.38;;;5.13;;
57635;SDS011;43465;50.728;4.160;2023-11-19T04:24:10;28.35;;;5.05;;
57635;SDS011;43465;50.728;4.160;2023-11-19T04:26:48;23.98;;;4.60;;
57635;SDS011;43465;50.728;4.160;2023-11-19T04:29:14;26.80;;;4.90;;
57635;SDS011;43465;50.728;4.160;2023-11-19T04:31:42;25.75;;;4.70;;
57635;SDS011;43465;50.728;4.160;2023-11-19T04:34:09;25.83;;;4.72;;
57635;SDS011;43465;50.728;4.160;2023-11-19T04:36:34;31.83;;;5.45;;
57635;SDS011;43465;50.728;4.160;2023-11-19T04:39:00;25.52;;;4.65;;
57635;SDS011;43465;50.728;4.160;2023-11-19T04:41:26;30.13;;;4.93;;
57635;SDS011;43465;50.728;4.160;2023-11-19T04:43:55;25.98;;;4.40;;
57635;SDS011;43465;50.728;4.160;2023-11-19T04:46:21;19.45;;;4.28;;
57635;SDS011;43465;50.728;4.160;2023-11-19T04:48:46;22.50;;;4.75;;
57635;SDS011;43465;50.728;4.160;2023-11-19T04:51:12;28.13;;;4.88;;
57635;SDS011;43465;50.728;4.160;2023-11-19T04:53:38;22.80;;;4.57;;
57635;SDS011;43465;50.728;4.160;2023-11-19T04:56:07;22.52;;;4.80;;
57635;SDS011;43465;50.728;4.160;2023-11-19T04:58:34;26.02;;;4.68;;
57635;SDS011;43465;50.728;4.160;2023-11-19T05:01:02;32.00;;;5.53;;
57635;SDS011;43465;50.728;4.160;2023-11-19T05:03:28;23.52;;;4.88;;
57635;SDS011;43465;50.728;4.160;2023-11-19T05:05:55;24.98;;;5.18;;
57635;SDS011;43465;50.728;4.160;2023-11-19T05:08:20;34.20;;;5.60;;
57635;SDS011;43465;50.728;4.160;2023-11-19T05:10:46;31.20;;;5.53;;
57635;SDS011;43465;50.728;4.160;2023-11-19T05:13:11;23.58;;;4.70;;
57635;SDS011;43465;50.728;4.160;2023-11-19T05:15:37;32.33;;;5.65;;
57635;SDS011;43465;50.728;4.160;2023-11-19T05:18:03;29.33;;;4.97;;
57635;SDS011;43465;50.728;4.160;2023-11-19T05:20:30;24.55;;;5.18;;
57635;SDS011;43465;50.728;4.160;2023-11-19T05:22:56;33.10;;;5.45;;
57635;SDS011;43465;50.728;4.160;2023-11-19T05:25:21;33.08;;;6.05;;
57635;SDS011;43465;50.728;4.160;2023-11-19T05:27:47;28.00;;;5.85;;
57635;SDS011;43465;50.728;4.160;2023-11-19T05:30:13;33.15;;;5.35;;
57635;SDS011;43465;50.728;4.160;2023-11-19T05:32:38;30.45;;;5.40;;
57635;SDS011;43465;50.728;4.160;2023-11-19T05:35:04;33.78;;;5.32;;
57635;SDS011;43465;50.728;4.160;2023-11-19T05:37:30;37.67;;;5.68;;
57635;SDS011;43465;50.728;4.160;2023-11-19T05:39:56;30.20;;;5.65;;
57635;SDS011;43465;50.728;4.160;2023-11-19T05:42:21;31.73;;;5.68;;
57635;SDS011;43465;50.728;4.160;2023-11-19T05:44:48;27.23;;;5.72;;
57635;SDS011;43465;50.728;4.160;2023-11-19T05:47:14;32.03;;;5.47;;
57635;SDS011;43465;50.728;4.160;2023-11-19T05:49:40;40.97;;;5.68;;
57635;SDS011;43465;50.728;4.160;2023-11-19T05:52:06;30.48;;;5.43;;
57635;SDS011;43465;50.728;4.160;2023-11-19T05:54:32;28.95;;;4.85;;
57635;SDS011;43465;50.728;4.160;2023-11-19T05:57:03;27.70;;;5.13;;
57635;SDS011;43465;50.728;4.160;2023-11-19T05:59:34;35.67;;;6.10;;
57635;SDS011;43465;50.728;4.160;2023-11-19T06:02:01;36.47;;;6.30;;
57635;SDS011;43465;50.728;4.160;2023-11-19T06:04:27;33.03;;;5.72;;
57635;SDS011;43465;50.728;4.160;2023-11-19T06:06:53;27.02;;;5.18;;
57635;SDS011;43465;50.728;4.160;2023-11-19T06:09:20;29.42;;;5.38;;
57635;SDS011;43465;50.728;4.160;2023-11-19T06:11:47;27.90;;;5.55;;
57635;SDS011;43465;50.728;4.160;2023-11-19T06:14:14;33.58;;;5.68;;
57635;SDS011;43465;50.728;4.160;2023-11-19T06:16:39;26.67;;;4.32;;
57635;SDS011;43465;50.728;4.160;2023-11-19T06:19:05;35.85;;;5.32;;
57635;SDS011;43465;50.728;4.160;2023-11-19T06:21:31;30.48;;;5.18;;
57635;SDS011;43465;50.728;4.160;2023-11-19T06:23:56;24.42;;;4.65;;
57635;SDS011;43465;50.728;4.160;2023-11-19T06:26:23;31.00;;;5.82;;
57635;SDS011;43465;50.728;4.160;2023-11-19T06:28:49;33.20;;;5.82;;
57635;SDS011;43465;50.728;4.160;2023-11-19T06:31:14;27.60;;;5.10;;
57635;SDS011;43465;50.728;4.160;2023-11-19T06:33:41;25.30;;;5.20;;
57635;SDS011;43465;50.728;4.160;2023-11-19T06:36:07;30.40;;;5.68;;
57635;SDS011;43465;50.728;4.160;2023-11-19T06:38:34;37.20;;;6.03;;
57635;SDS011;43465;50.728;4.160;2023-11-19T06:41:00;35.30;;;5.88;;
57635;SDS011;43465;50.728;4.160;2023-11-19T06:43:26;33.30;;;5.75;;
57635;SDS011;43465;50.728;4.160;2023-11-19T06:45:53;34.80;;;6.13;;
57635;SDS011;43465;50.728;4.160;2023-11-19T06:48:19;35.95;;;5.65;;
57635;SDS011;43465;50.728;4.160;2023-11-19T06:50:44;32.60;;;5.60;;
57635;SDS011;43465;50.728;4.160;2023-11-19T06:53:10;23.38;;;5.90;;
57635;SDS011;43465;50.728;4.160;2023-11-19T06:55:36;32.55;;;5.13;;
57635;SDS011;43465;50.728;4.160;2023-11-19T06:58:02;29.98;;;6.53;;
57635;SDS011;43465;50.728;4.160;2023-11-19T07:00:28;38.35;;;6.03;;
57635;SDS011;43465;50.728;4.160;2023-11-19T07:02:54;30.42;;;5.45;;
57635;SDS011;43465;50.728;4.160;2023-11-19T07:05:20;36.70;;;5.50;;
57635;SDS011;43465;50.728;4.160;2023-11-19T07:07:46;35.35;;;6.03;;
57635;SDS011;43465;50.728;4.160;2023-11-19T07:10:12;39.90;;;6.25;;
57635;SDS011;43465;50.728;4.160;2023-11-19T07:12:38;36.25;;;5.72;;
57635;SDS011;43465;50.728;4.160;2023-11-19T07:15:04;40.03;;;5.63;;
57635;SDS011;43465;50.728;4.160;2023-11-19T07:17:30;27.88;;;5.13;;
57635;SDS011;43465;50.728;4.160;2023-11-19T07:19:56;30.85;;;5.28;;
57635;SDS011;43465;50.728;4.160;2023-11-19T07:22:24;31.85;;;5.60;;
57635;SDS011;43465;50.728;4.160;2023-11-19T07:24:51;31.27;;;5.63;;
57635;SDS011;43465;50.728;4.160;2023-11-19T07:27:18;27.67;;;4.93;;
57635;SDS011;43465;50.728;4.160;2023-11-19T07:29:44;28.42;;;5.18;;
57635;SDS011;43465;50.728;4.160;2023-11-19T07:32:10;31.63;;;5.45;;
57635;SDS011;43465;50.728;4.160;2023-11-19T07:34:36;33.47;;;5.63;;
57635;SDS011;43465;50.728;4.160;2023-11-19T07:37:01;34.35;;;5.80;;
57635;SDS011;43465;50.728;4.160;2023-11-19T07:39:28;29.60;;;5.10;;
57635;SDS011;43465;50.728;4.160;2023-11-19T07:41:54;35.30;;;5.43;;
57635;SDS011;43465;50.728;4.160;2023-11-19T07:44:20;34.35;;;6.05;;
57635;SDS011;43465;50.728;4.160;2023-11-19T07:46:46;33.38;;;5.35;;
57635;SDS011;43465;50.728;4.160;2023-11-19T07:49:13;32.78;;;6.13;;
57635;SDS011;43465;50.728;4.160;2023-11-19T07:51:39;31.30;;;5.57;;
57635;SDS011;43465;50.728;4.160;2023-11-19T07:54:04;31.13;;;5.10;;
57635;SDS011;43465;50.728;4.160;2023-11-19T07:56:31;20.88;;;5.50;;
57635;SDS011;43465;50.728;4.160;2023-11-19T07:58:59;30.60;;;5.90;;
57635;SDS011;43465;50.728;4.160;2023-11-19T08:01:25;26.67;;;4.55;;
57635;SDS011;43465;50.728;4.160;2023-11-19T08:03:50;31.38;;;5.07;;
57635;SDS011;43465;50.728;4.160;2023-11-19T08:06:16;31.77;;;5.82;;
57635;SDS011;43465;50.728;4.160;2023-11-19T08:08:42;29.38;;;5.50;;
57635;SDS011;43465;50.728;4.160;2023-11-19T08:11:08;30.25;;;4.75;;
57635;SDS011;43465;50.728;4.160;2023-11-19T08:13:33;29.27;;;5.65;;
57635;SDS011;43465;50.728;4.160;2023-11-19T08:15:59;31.38;;;5.07;;
57635;SDS011;43465;50.728;4.160;2023-11-19T08:18:24;26.23;;;4.70;;
57635;SDS011;43465;50.728;4.160;2023-11-19T08:20:50;29.70;;;5.80;;
57635;SDS011;43465;50.728;4.160;2023-11-19T08:23:19;30.33;;;5.22;;
57635;SDS011;43465;50.728;4.160;2023-11-19T08:25:45;26.77;;;4.70;;
57635;SDS011;43465;50.728;4.160;2023-11-19T08:28:11;24.73;;;5.10;;
57635;SDS011;43465;50.728;4.160;2023-11-19T08:30:37;35.22;;;5.97;;
57635;SDS011;43465;50.728;4.160;2023-11-19T08:33:03;21.17;;;4.32;;
57635;SDS011;43465;50.728;4.160;2023-11-19T08:35:31;25.90;;;5.35;;
57635;SDS011;43465;50.728;4.160;2023-11-19T08:37:57;29.73;;;4.78;;
57635;SDS011;43465;50.728;4.160;2023-11-19T08:40:23;27.55;;;5.68;;
57635;SDS011;43465;50.728;4.160;2023-11-19T08:42:50;23.90;;;4.97;;
57635;SDS011;43465;50.728;4.160;2023-11-19T08:45:16;32.67;;;5.40;;
57635;SDS011;43465;50.728;4.160;2023-11-19T08:47:42;32.28;;;5.28;;
57635;SDS011;43465;50.728;4.160;2023-11-19T08:50:09;20.73;;;4.28;;
57635;SDS011;43465;50.728;4.160;2023-11-19T08:52:36;25.13;;;4.50;;
57635;SDS011;43465;50.728;4.160;2023-11-19T08:55:02;25.45;;;4.40;;
57635;SDS011;43465;50.728;4.160;2023-11-19T08:57:28;20.25;;;4.22;;
57635;SDS011;43465;50.728;4.160;2023-11-19T08:59:53;28.45;;;5.05;;
57635;SDS011;43465;50.728;4.160;2023-11-19T09:02:19;27.30;;;5.05;;
57635;SDS011;43465;50.728;4.160;2023-11-19T09:04:45;24.23;;;4.63;;
57635;SDS011;43465;50.728;4.160;2023-11-19T09:07:10;21.83;;;4.43;;
57635;SDS011;43465;50.728;4.160;2023-11-19T09:09:36;25.05;;;5.18;;
57635;SDS011;43465;50.728;4.160;2023-11-19T09:12:02;23.67;;;4.75;;
57635;SDS011;43465;50.728;4.160;2023-11-19T09:14:31;28.63;;;4.63;;
57635;SDS011;43465;50.728;4.160;2023-11-19T09:16:57;26.10;;;5.00;;
57635;SDS011;43465;50.728;4.160;2023-11-19T09:19:23;22.75;;;4.63;;
57635;SDS011;43465;50.728;4.160;2023-11-19T09:21:49;24.80;;;4.85;;
57635;SDS011;43465;50.728;4.160;2023-11-19T09:24:15;19.17;;;4.20;;
57635;SDS011;43465;50.728;4.160;2023-11-19T09:26:41;26.10;;;4.68;;
57635;SDS011;43465;50.728;4.160;2023-11-19T09:29:07;27.67;;;5.05;;
57635;SDS011;43465;50.728;4.160;2023-11-19T09:31:33;25.42;;;4.75;;
57635;SDS011;43465;50.728;4.160;2023-11-19T09:33:59;25.85;;;4.70;;
57635;SDS011;43465;50.728;4.160;2023-11-19T09:36:25;24.42;;;4.78;;
57635;SDS011;43465;50.728;4.160;2023-11-19T09:38:51;24.90;;;4.40;;
57635;SDS011;43465;50.728;4.160;2023-11-19T09:41:17;24.27;;;4.72;;
57635;SDS011;43465;50.728;4.160;2023-11-19T09:43:44;22.38;;;4.30;;
57635;SDS011;43465;50.728;4.160;2023-11-19T09:46:11;28.15;;;4.65;;
57635;SDS011;43465;50.728;4.160;2023-11-19T09:48:40;22.02;;;4.82;;
57635;SDS011;43465;50.728;4.160;2023-11-19T09:51:07;27.38;;;5.13;;
57635;SDS011;43465;50.728;4.160;2023-11-19T09:53:35;22.75;;;4.90;;
57635;SDS011;43465;50.728;4.160;2023-11-19T09:56:02;22.30;;;4.30;;
57635;SDS011;43465;50.728;4.160;2023-11-19T09:58:29;19.67;;;4.80;;
57635;SDS011;43465;50.728;4.160;2023-11-19T10:00:56;29.20;;;4.65;;
57635;SDS011;43465;50.728;4.160;2023-11-19T10:03:26;28.15;;;4.80;;
57635;SDS011;43465;50.728;4.160;2023-11-19T10:05:54;23.65;;;5.13;;
57635;SDS011;43465;50.728;4.160;2023-11-19T10:08:21;24.13;;;4.80;;
57635;SDS011;43465;50.728;4.160;2023-11-19T10:10:47;23.65;;;4.93;;
57635;SDS011;43465;50.728;4.160;2023-11-19T10:13:13;23.23;;;5.25;;
57635;SDS011;43465;50.728;4.160;2023-11-19T10:15:39;22.70;;;4.90;;
57635;SDS011;43465;50.728;4.160;2023-11-19T10:18:05;25.75;;;5.50;;
57635;SDS011;43465;50.728;4.160;2023-11-19T10:20:35;18.20;;;4.07;;
57635;SDS011;43465;50.728;4.160;2023-11-19T10:23:07;23.77;;;4.80;;
57635;SDS011;43465;50.728;4.160;2023-11-19T10:25:33;26.30;;;5.20;;
57635;SDS011;43465;50.728;4.160;2023-11-19T10:27:59;19.25;;;4.70;;
57635;SDS011;43465;50.728;4.160;2023-11-19T10:30:29;22.30;;;4.25;;
57635;SDS011;43465;50.728;4.160;2023-11-19T10:35:33;21.20;;;4.45;;
57635;SDS011;43465;50.728;4.160;2023-11-19T10:38:21;21.50;;;4.82;;
57635;SDS011;43465;50.728;4.160;2023-11-19T10:40:49;24.42;;;4.80;;
57635;SDS011;43465;50.728;4.160;2023-11-19T10:43:16;19.20;;;3.55;;
57635;SDS011;43465;50.728;4.160;2023-11-19T10:45:42;23.95;;;5.15;;
57635;SDS011;43465;50.728;4.160;2023-11-19T10:48:08;24.88;;;4.97;;
57635;SDS011;43465;50.728;4.160;2023-11-19T10:50:38;23.55;;;4.60;;
57635;SDS011;43465;50.728;4.160;2023-11-19T10:53:05;21.02;;;4.38;;
57635;SDS011;43465;50.728;4.160;2023-11-19T10:55:36;23.55;;;4.75;;
57635;SDS011;43465;50.728;4.160;2023-11-19T10:58:04;28.57;;;4.30;;
57635;SDS011;43465;50.728;4.160;2023-11-19T11:00:37;23.98;;;5.20;;
57635;SDS011;43465;50.728;4.160;2023-11-19T11:03:16;29.98;;;5.90;;
57635;SDS011;43465;50.728;4.160;2023-11-19T11:05:45;25.10;;;5.15;;
57635;SDS011;43465;50.728;4.160;2023-11-19T11:08:12;30.27;;;5.82;;
57635;SDS011;43465;50.728;4.160;2023-11-19T11:10:59;36.50;;;5.68;;
57635;SDS011;43465;50.728;4.160;2023-11-19T11:13:25;31.92;;;5.43;;
57635;SDS011;43465;50.728;4.160;2023-11-19T11:15:55;30.65;;;5.70;;
57635;SDS011;43465;50.728;4.160;2023-11-19T11:18:22;25.63;;;5.40;;
57635;SDS011;43465;50.728;4.160;2023-11-19T11:20:50;33.97;;;6.05;;
57635;SDS011;43465;50.728;4.160;2023-11-19T11:31:31;21.80;;;5.55;;
57635;SDS011;43465;50.728;4.160;2023-11-19T11:36:49;30.45;;;5.35;;
57635;SDS011;43465;50.728;4.160;2023-11-19T11:39:25;26.67;;;4.95;;
57635;SDS011;43465;50.728;4.160;2023-11-19T11:44:58;23.20;;;4.40;;
57635;SDS011;43465;50.728;4.160;2023-11-19T11:50:14;20.92;;;4.20;;
57635;SDS011;43465;50.728;4.160;2023-11-19T11:57:54;19.83;;;4.25;;
57635;SDS011;43465;50.728;4.160;2023-11-19T12:00:27;15.68;;;3.75;;
57635;SDS011;43465;50.728;4.160;2023-11-19T12:02:57;22.08;;;3.60;;
57635;SDS011;43465;50.728;4.160;2023-11-19T12:05:26;17.58;;;4.03;;
57635;SDS011;43465;50.728;4.160;2023-11-19T12:07:55;20.13;;;3.92;;
57635;SDS011;43465;50.728;4.160;2023-11-19T12:10:53;22.15;;;4.38;;
57635;SDS011;43465;50.728;4.160;2023-11-19T12:13:19;22.58;;;4.72;;
57635;SDS011;43465;50.728;4.160;2023-11-19T12:18:30;21.20;;;4.40;;
57635;SDS011;43465;50.728;4.160;2023-11-19T12:20:57;23.85;;;4.75;;
57635;SDS011;43465;50.728;4.160;2023-11-19T12:23:28;25.20;;;5.05;;
57635;SDS011;43465;50.728;4.160;2023-11-19T12:25:55;21.15;;;4.68;;
57635;SDS011;43465;50.728;4.160;2023-11-19T12:28:21;22.13;;;4.38;;
57635;SDS011;43465;50.728;4.160;2023-11-19T12:30:47;27.38;;;4.88;;
57635;SDS011;43465;50.728;4.160;2023-11-19T12:33:13;25.55;;;4.70;;
57635;SDS011;43465;50.728;4.160;2023-11-19T12:35:43;23.45;;;4.20;;
57635;SDS011;43465;50.728;4.160;2023-11-19T12:38:23;26.42;;;5.07;;
57635;SDS011;43465;50.728;4.160;2023-11-19T12:43:31;23.95;;;4.80;;
57635;SDS011;43465;50.728;4.160;2023-11-19T12:45:59;23.67;;;4.55;;
57635;SDS011;43465;50.728;4.160;2023-11-19T12:48:25;20.98;;;4.85;;
57635;SDS011;43465;50.728;4.160;2023-11-19T12:50:54;22.77;;;4.65;;
57635;SDS011;43465;50.728;4.160;2023-11-19T12:53:25;21.20;;;4.07;;
57635;SDS011;43465;50.728;4.160;2023-11-19T12:55:51;23.77;;;4.57;;
57635;SDS011;43465;50.728;4.160;2023-11-19T12:58:31;25.67;;;5.50;;
57635;SDS011;43465;50.728;4.160;2023-11-19T13:03:33;24.55;;;5.85;;
57635;SDS011;43465;50.728;4.160;2023-11-19T13:06:04;22.75;;;4.82;;
57635;SDS011;43465;50.728;4.160;2023-11-19T13:08:38;29.20;;;4.82;;
57635;SDS011;43465;50.728;4.160;2023-11-19T13:11:13;34.47;;;5.63;;
57635;SDS011;43465;50.728;4.160;2023-11-19T13:16:21;33.35;;;5.03;;
57635;SDS011;43465;50.728;4.160;2023-11-19T13:18:47;27.60;;;4.70;;
57635;SDS011;43465;50.728;4.160;2023-11-19T13:21:12;33.80;;;5.10;;
57635;SDS011;43465;50.728;4.160;2023-11-19T13:23:38;29.70;;;5.50;;
57635;SDS011;43465;50.728;4.160;2023-11-19T13:26:04;24.48;;;5.07;;
57635;SDS011;43465;50.728;4.160;2023-11-19T13:28:29;30.83;;;6.63;;
57635;SDS011;43465;50.728;4.160;2023-11-19T13:30:56;29.83;;;5.10;;
57635;SDS011;43465;50.728;4.160;2023-11-19T13:33:21;28.15;;;6.05;;
57635;SDS011;43465;50.728;4.160;2023-11-19T13:35:47;29.33;;;4.63;;
57635;SDS011;43465;50.728;4.160;2023-11-19T13:38:12;34.42;;;5.40;;
57635;SDS011;43465;50.728;4.160;2023-11-19T13:40:38;27.88;;;4.70;;
57635;SDS011;43465;50.728;4.160;2023-11-19T13:43:04;24.60;;;5.15;;
57635;SDS011;43465;50.728;4.160;2023-11-19T13:45:30;28.27;;;5.45;;
57635;SDS011;43465;50.728;4.160;2023-11-19T13:47:55;27.10;;;5.20;;
57635;SDS011;43465;50.728;4.160;2023-11-19T13:50:21;29.80;;;5.28;;
57635;SDS011;43465;50.728;4.160;2023-11-19T13:52:48;32.03;;;4.93;;
57635;SDS011;43465;50.728;4.160;2023-11-19T13:55:14;24.48;;;5.50;;
57635;SDS011;43465;50.728;4.160;2023-11-19T13:57:40;26.05;;;4.50;;
57635;SDS011;43465;50.728;4.160;2023-11-19T14:00:08;23.98;;;5.15;;
57635;SDS011;43465;50.728;4.160;2023-11-19T14:02:41;34.42;;;5.47;;
57635;SDS011;43465;50.728;4.160;2023-11-19T14:05:08;27.35;;;5.75;;
57635;SDS011;43465;50.728;4.160;2023-11-19T14:07:35;31.52;;;5.57;;
57635;SDS011;43465;50.728;4.160;2023-11-19T14:10:02;24.35;;;5.05;;
57635;SDS011;43465;50.728;4.160;2023-11-19T14:12:28;27.88;;;5.40;;
57635;SDS011;43465;50.728;4.160;2023-11-19T14:14:54;22.98;;;4.68;;
57635;SDS011;43465;50.728;4.160;2023-11-19T14:17:19;32.30;;;5.35;;
57635;SDS011;43465;50.728;4.160;2023-11-19T14:19:45;26.73;;;4.43;;
57635;SDS011;43465;50.728;4.160;2023-11-19T14:22:11;30.25;;;5.40;;
57635;SDS011;43465;50.728;4.160;2023-11-19T14:24:37;25.20;;;4.93;;
57635;SDS011;43465;50.728;4.160;2023-11-19T14:27:03;31.60;;;5.60;;
57635;SDS011;43465;50.728;4.160;2023-11-19T14:29:29;27.80;;;5.40;;
57635;SDS011;43465;50.728;4.160;2023-11-19T14:31:55;26.73;;;4.70;;
57635;SDS011;43465;50.728;4.160;2023-11-19T14:34:21;22.35;;;4.75;;
57635;SDS011;43465;50.728;4.160;2023-11-19T14:36:47;26.73;;;5.22;;
57635;SDS011;43465;50.728;4.160;2023-11-19T14:39:14;36.08;;;6.10;;
57635;SDS011;43465;50.728;4.160;2023-11-19T14:41:40;24.65;;;4.82;;
57635;SDS011;43465;50.728;4.160;2023-11-19T14:44:05;25.60;;;4.78;;
57635;SDS011;43465;50.728;4.160;2023-11-19T14:46:31;24.45;;;4.43;;
57635;SDS011;43465;50.728;4.160;2023-11-19T14:48:57;28.70;;;5.15;;
57635;SDS011;43465;50.728;4.160;2023-11-19T14:51:22;29.65;;;5.60;;
57635;SDS011;43465;50.728;4.160;2023-11-19T14:53:48;25.15;;;4.93;;
57635;SDS011;43465;50.728;4.160;2023-11-19T14:56:14;26.70;;;5.47;;
57635;SDS011;43465;50.728;4.160;2023-11-19T14:58:39;23.85;;;4.70;;
57635;SDS011;43465;50.728;4.160;2023-11-19T15:01:05;24.67;;;4.45;;
57635;SDS011;43465;50.728;4.160;2023-11-19T15:03:36;26.13;;;4.75;;
57635;SDS011;43465;50.728;4.160;2023-11-19T15:06:01;27.65;;;5.43;;
57635;SDS011;43465;50.728;4.160;2023-11-19T15:08:27;24.80;;;5.50;;
57635;SDS011;43465;50.728;4.160;2023-11-19T15:10:53;22.23;;;4.32;;
57635;SDS011;43465;50.728;4.160;2023-11-19T15:13:18;26.63;;;5.22;;